createdAt,value
2019-01-24T00:01:17.395Z,74.52
2019-01-24T00:03:46.483Z,74.51
2019-01-24T00:06:15.575Z,74.38
2019-01-24T00:08:44.673Z,74.34
2019-01-24T00:11:13.761Z,74.22
2019-01-24T00:13:42.842Z,74.25
2019-01-24T00:16:11.960Z,74.36
2019-01-24T00:18:41.035Z,74.38
2019-01-24T00:21:10.135Z,74.36
2019-01-24T00:23:39.242Z,74.40
2019-01-24T00:26:08.318Z,74.32
2019-01-24T00:28:37.402Z,74.25
2019-01-24T00:31:06.520Z,74.31
2019-01-24T00:33:35.836Z,74.32
2019-01-24T00:36:04.850Z,74.26
2019-01-24T00:38:34.123Z,74.28
2019-01-24T00:41:03.185Z,74.35
2019-01-24T00:43:32.253Z,74.34
2019-01-24T00:46:15.373Z,74.27
2019-01-24T00:48:44.468Z,74.27
2019-01-24T00:51:13.531Z,74.31
2019-01-24T00:53:42.748Z,74.19
2019-01-24T00:56:11.843Z,74.17
2019-01-24T00:58:40.882Z,74.12
2019-01-24T01:01:10.050Z,74.15
2019-01-24T01:03:39.152Z,74.13
2019-01-24T01:06:08.204Z,74.05
2019-01-24T01:08:37.302Z,73.98
2019-01-24T01:11:06.380Z,74.07
2019-01-24T01:13:35.456Z,74.02
2019-01-24T01:16:04.915Z,74.15
2019-01-24T01:18:33.919Z,74.19
2019-01-24T01:21:02.978Z,74.26
2019-01-24T01:23:32.075Z,74.23
2019-01-24T01:26:17.499Z,74.20
2019-01-24T01:28:47.569Z,74.26
2019-01-24T01:31:16.638Z,74.43
2019-01-24T01:33:45.721Z,74.37
2019-01-24T01:36:14.850Z,74.35
2019-01-24T01:38:43.922Z,74.34
2019-01-24T01:41:13.000Z,74.34
2019-01-24T01:43:42.100Z,74.29
2019-01-24T01:46:11.170Z,74.39
2019-01-24T01:48:40.269Z,74.37
2019-01-24T01:51:09.371Z,74.41
2019-01-24T01:53:38.451Z,74.78
2019-01-24T01:56:07.537Z,74.52
2019-01-24T01:58:36.641Z,74.36
2019-01-24T02:01:05.719Z,74.32
2019-01-24T02:03:34.809Z,74.23
2019-01-24T02:06:03.908Z,74.23
2019-01-24T02:08:32.978Z,74.25
2019-01-24T02:11:02.054Z,74.37
2019-01-24T02:13:31.157Z,74.46
2019-01-24T02:16:00.232Z,74.40
2019-01-24T02:18:29.297Z,74.38
2019-01-24T02:20:58.417Z,74.30
2019-01-24T02:23:27.487Z,74.25
2019-01-24T02:26:15.600Z,74.30
2019-01-24T02:28:44.653Z,74.23
2019-01-24T02:31:13.743Z,74.20
2019-01-24T02:33:42.839Z,74.24
2019-01-24T02:36:11.916Z,74.19
2019-01-24T02:38:40.973Z,74.21
2019-01-24T02:41:10.221Z,74.11
2019-01-24T02:43:39.300Z,74.15
2019-01-24T02:46:08.349Z,74.14
2019-01-24T02:48:37.475Z,74.17
2019-01-24T02:51:06.542Z,74.10
2019-01-24T02:53:35.616Z,74.14
2019-01-24T02:56:04.960Z,74.14
2019-01-24T02:58:34.000Z,74.15
2019-01-24T03:01:03.103Z,74.11
2019-01-24T03:03:32.264Z,74.02
2019-01-24T03:06:01.357Z,74.11
2019-01-24T03:08:30.426Z,74.26
2019-01-24T03:10:59.525Z,74.20
2019-01-24T03:13:28.594Z,74.10
2019-01-24T03:15:57.674Z,74.07
2019-01-24T03:18:26.774Z,74.05
2019-01-24T03:20:55.851Z,74.08
2019-01-24T03:23:24.926Z,74.03
2019-01-24T03:25:54.038Z,74.00
2019-01-24T03:28:23.116Z,74.01
2019-01-24T03:30:52.193Z,74.07
2019-01-24T03:33:22.236Z,74.04
2019-01-24T03:35:51.346Z,74.04
2019-01-24T03:38:20.380Z,74.02
2019-01-24T03:40:49.476Z,74.04
2019-01-24T03:43:18.551Z,74.16
2019-01-24T03:45:47.632Z,74.09
2019-01-24T03:48:16.748Z,74.06
2019-01-24T03:50:45.817Z,74.11
2019-01-24T03:53:14.895Z,74.22
2019-01-24T03:55:43.998Z,74.32
2019-01-24T03:58:13.062Z,74.22
2019-01-24T04:00:42.144Z,74.28
2019-01-24T04:03:11.256Z,74.30
2019-01-24T04:05:40.327Z,74.25
2019-01-24T04:08:09.397Z,74.28
2019-01-24T04:10:38.515Z,74.27
2019-01-24T04:13:07.585Z,74.25
2019-01-24T04:15:36.669Z,74.16
2019-01-24T04:18:06.137Z,74.06
2019-01-24T04:20:35.126Z,74.06
2019-01-24T04:23:04.187Z,74.12
2019-01-24T04:25:33.291Z,74.00
2019-01-24T04:28:02.350Z,74.01
2019-01-24T04:30:31.788Z,74.23
2019-01-24T04:33:01.233Z,74.19
2019-01-24T04:35:30.897Z,74.11
2019-01-24T04:37:59.884Z,74.00
2019-01-24T04:40:28.988Z,73.97
2019-01-24T04:42:58.069Z,73.92
2019-01-24T04:45:38.658Z,73.96
2019-01-24T04:48:07.721Z,74.05
2019-01-24T04:50:36.794Z,74.08
2019-01-24T04:53:05.902Z,74.06
2019-01-24T04:55:34.990Z,74.03
2019-01-24T04:58:04.070Z,74.03
2019-01-24T05:00:33.176Z,74.08
2019-01-24T05:03:02.275Z,73.97
2019-01-24T05:05:36.498Z,73.87
2019-01-24T05:08:05.579Z,73.94
2019-01-24T05:10:34.669Z,74.00
2019-01-24T05:13:03.833Z,74.02
2019-01-24T05:15:32.919Z,73.95
2019-01-24T05:18:02.003Z,73.98
2019-01-24T05:20:31.121Z,73.96
2019-01-24T05:23:00.201Z,74.02
2019-01-24T05:25:29.290Z,74.06
2019-01-24T05:27:58.388Z,73.97
2019-01-24T05:30:27.468Z,74.00
2019-01-24T05:32:56.548Z,74.11
2019-01-24T05:35:25.673Z,73.97
2019-01-24T05:37:54.755Z,73.95
2019-01-24T05:40:23.841Z,73.94
2019-01-24T05:42:52.958Z,73.88
2019-01-24T05:45:22.050Z,73.80
2019-01-24T05:47:51.341Z,73.85
2019-01-24T05:50:20.383Z,73.78
2019-01-24T05:52:49.461Z,73.79
2019-01-24T05:55:18.868Z,73.80
2019-01-24T05:57:47.962Z,73.78
2019-01-24T06:00:17.046Z,73.82
2019-01-24T06:02:46.117Z,73.85
2019-01-24T06:08:09.598Z,73.84
2019-01-24T06:10:38.704Z,73.82
2019-01-24T06:13:07.798Z,73.88
2019-01-24T06:15:36.876Z,73.83
2019-01-24T06:18:05.995Z,73.77
2019-01-24T06:20:35.076Z,73.75
2019-01-24T06:23:04.177Z,73.82
2019-01-24T06:25:33.299Z,73.81
2019-01-24T06:28:02.379Z,73.80
2019-01-24T06:30:31.475Z,73.83
2019-01-24T06:33:00.600Z,73.84
2019-01-24T06:35:36.754Z,73.82
2019-01-24T06:38:06.770Z,73.80
2019-01-24T06:40:35.823Z,73.75
2019-01-24T06:43:04.900Z,73.72
2019-01-24T06:45:34.019Z,73.72
2019-01-24T06:48:03.108Z,73.66
2019-01-24T06:50:32.194Z,73.61
2019-01-24T06:53:01.305Z,73.52
2019-01-24T06:55:30.374Z,73.63
2019-01-24T06:57:59.458Z,73.60
2019-01-24T07:00:28.586Z,73.51
2019-01-24T07:02:57.686Z,73.54
2019-01-24T07:05:26.789Z,73.55
2019-01-24T07:07:55.910Z,73.59
2019-01-24T07:10:25.019Z,73.61
2019-01-24T07:12:54.102Z,73.53
2019-01-24T07:15:23.315Z,73.51
2019-01-24T07:17:52.412Z,73.49
2019-01-24T07:20:21.538Z,73.48
2019-01-24T07:22:50.614Z,73.45
2019-01-24T07:28:20.945Z,73.33
2019-01-24T07:30:50.031Z,73.11
2019-01-24T07:33:19.100Z,72.92
2019-01-24T07:35:48.193Z,72.56
2019-01-24T07:38:17.281Z,72.52
2019-01-24T07:40:46.354Z,72.49
2019-01-24T07:43:15.731Z,72.27
2019-01-24T07:45:44.581Z,72.12
2019-01-24T07:48:13.669Z,71.89
2019-01-24T07:50:42.799Z,71.77
2019-01-24T07:53:11.875Z,71.35
2019-01-24T07:55:40.959Z,71.13
2019-01-24T07:58:10.106Z,71.03
2019-01-24T08:00:39.136Z,70.84
2019-01-24T08:03:08.239Z,70.84
2019-01-24T08:05:37.906Z,70.98
2019-01-24T08:08:06.443Z,70.84
2019-01-24T08:10:35.542Z,70.92
2019-01-24T08:13:04.654Z,70.55
2019-01-24T08:15:35.753Z,70.49
2019-01-24T08:18:04.876Z,70.58
2019-01-24T08:20:34.000Z,70.48
2019-01-24T08:23:03.046Z,70.42
2019-01-24T08:25:32.174Z,70.77
2019-01-24T08:28:01.260Z,70.66
2019-01-24T08:30:30.354Z,70.52
2019-01-24T08:32:59.459Z,70.00
2019-01-24T08:35:28.542Z,69.94
2019-01-24T08:37:57.635Z,70.15
2019-01-24T08:40:27.567Z,70.42
2019-01-24T08:42:56.651Z,69.14
2019-01-24T08:45:25.745Z,68.61
2019-01-24T08:47:54.855Z,68.31
2019-01-24T08:50:23.952Z,69.14
2019-01-24T08:52:53.037Z,68.80
2019-01-24T08:55:34.494Z,68.58
2019-01-24T08:58:03.574Z,68.61
2019-01-24T09:00:32.663Z,68.85
2019-01-24T09:03:02.059Z,68.86
2019-01-24T09:05:31.139Z,69.17
2019-01-24T09:08:00.223Z,69.48
2019-01-24T09:10:31.304Z,69.43
2019-01-24T09:13:00.402Z,69.58
2019-01-24T09:15:29.489Z,69.91
2019-01-24T09:17:58.601Z,70.20
2019-01-24T09:20:27.693Z,70.64
2019-01-24T09:22:56.803Z,70.68
2019-01-24T09:25:25.970Z,70.71
2019-01-24T09:27:55.055Z,71.05
2019-01-24T09:30:24.183Z,71.46
2019-01-24T09:32:53.292Z,71.74
2019-01-24T09:35:22.416Z,71.99
2019-01-24T09:37:51.503Z,72.28
2019-01-24T09:40:20.615Z,72.41
2019-01-24T09:42:50.579Z,72.80
2019-01-24T09:45:19.673Z,73.41
2019-01-24T09:47:48.787Z,73.32
2019-01-24T09:50:19.421Z,73.68
2019-01-24T09:52:48.497Z,73.94
2019-01-24T09:55:39.043Z,74.48
2019-01-24T09:58:08.127Z,74.54
2019-01-24T10:00:37.203Z,74.36
2019-01-24T10:03:06.340Z,74.28
2019-01-24T10:05:35.417Z,74.39
2019-01-24T10:08:04.482Z,74.55
2019-01-24T10:10:33.607Z,74.59
2019-01-24T10:13:02.698Z,74.43
2019-01-24T10:15:31.789Z,74.37
2019-01-24T10:18:00.895Z,74.29
2019-01-24T10:20:29.973Z,74.50
2019-01-24T10:22:59.037Z,74.57
2019-01-24T10:25:36.490Z,74.28
2019-01-24T10:28:05.551Z,74.05
2019-01-24T10:30:34.636Z,74.09
2019-01-24T10:33:03.723Z,73.91
2019-01-24T10:35:32.799Z,73.83
2019-01-24T10:38:01.864Z,73.83
2019-01-24T10:40:30.966Z,73.72
2019-01-24T10:43:00.041Z,73.71
2019-01-24T10:45:47.594Z,73.16
2019-01-24T10:48:16.663Z,72.77
2019-01-24T10:50:45.723Z,72.15
2019-01-24T10:53:14.854Z,71.56
2019-01-24T10:55:48.747Z,71.08
2019-01-24T10:58:17.851Z,69.64
2019-01-24T11:00:46.970Z,68.75
2019-01-24T11:03:15.996Z,67.74
2019-01-24T11:05:45.102Z,67.13
2019-01-24T11:08:14.172Z,66.52
2019-01-24T11:10:43.239Z,66.01
2019-01-24T11:13:12.340Z,64.94
2019-01-24T11:15:56.456Z,66.28
2019-01-24T11:18:25.550Z,65.07
2019-01-24T11:20:54.626Z,64.79
2019-01-24T11:23:23.685Z,65.21
2019-01-24T11:25:52.816Z,64.54
2019-01-24T11:28:21.893Z,64.89
2019-01-24T11:30:50.955Z,65.25
2019-01-24T11:33:20.051Z,65.34
2019-01-24T11:35:49.129Z,65.63
2019-01-24T11:38:18.196Z,65.89
2019-01-24T11:40:47.290Z,65.12
2019-01-24T11:43:16.368Z,64.87
2019-01-24T11:45:45.439Z,65.25
2019-01-24T11:48:14.572Z,65.15
2019-01-24T11:50:43.641Z,65.36
2019-01-24T11:53:12.717Z,65.42
2019-01-24T11:55:42.135Z,65.33
2019-01-24T11:58:11.133Z,65.45
2019-01-24T12:00:40.199Z,65.80
2019-01-24T12:03:09.298Z,66.14
2019-01-24T12:08:43.957Z,65.67
2019-01-24T12:11:13.030Z,65.34
2019-01-24T12:13:42.118Z,65.05
2019-01-24T12:16:11.221Z,65.21
2019-01-24T12:18:40.295Z,65.14
2019-01-24T12:21:09.373Z,65.31
2019-01-24T12:23:38.465Z,65.47
2019-01-24T12:26:07.533Z,65.48
2019-01-24T12:28:36.600Z,64.94
2019-01-24T12:31:05.705Z,64.78
2019-01-24T12:33:34.774Z,65.50
2019-01-24T12:36:04.120Z,65.64
2019-01-24T12:38:33.168Z,65.90
2019-01-24T12:41:02.240Z,66.49
2019-01-24T12:43:32.198Z,66.46
2019-01-24T12:46:01.287Z,66.10
2019-01-24T12:48:30.348Z,65.98
2019-01-24T12:50:59.407Z,66.15
2019-01-24T12:53:28.529Z,66.35
2019-01-24T12:55:57.599Z,66.54
2019-01-24T12:58:26.673Z,66.77
2019-01-24T13:00:55.863Z,67.02
2019-01-24T13:03:24.931Z,67.25
2019-01-24T13:05:53.995Z,67.48
2019-01-24T13:08:23.087Z,68.08
2019-01-24T13:10:52.164Z,68.18
2019-01-24T13:13:21.232Z,68.63
2019-01-24T13:15:50.647Z,68.89
2019-01-24T13:18:19.722Z,68.89
2019-01-24T13:20:48.844Z,68.90
2019-01-24T13:23:17.961Z,68.90
2019-01-24T13:25:47.046Z,69.19
2019-01-24T13:28:16.298Z,69.56
2019-01-24T13:30:45.390Z,69.53
2019-01-24T13:33:15.183Z,69.96
2019-01-24T13:35:43.555Z,69.96
2019-01-24T13:38:12.686Z,70.21
2019-01-24T13:40:41.758Z,70.63
2019-01-24T13:43:10.827Z,70.64
2019-01-24T13:45:39.925Z,70.98
2019-01-24T13:48:09.000Z,71.04
2019-01-24T13:50:38.074Z,71.45
2019-01-24T13:53:07.165Z,71.36
2019-01-24T13:55:36.237Z,71.26
2019-01-24T13:58:05.323Z,71.50
2019-01-24T14:00:34.428Z,71.75
2019-01-24T14:03:17.055Z,71.92
2019-01-24T14:05:46.161Z,72.15
2019-01-24T14:08:15.231Z,72.10
2019-01-24T14:10:44.303Z,72.20
2019-01-24T14:13:13.401Z,72.16
2019-01-24T14:15:42.475Z,72.19
2019-01-24T14:18:11.534Z,72.05
2019-01-24T14:20:40.670Z,72.03
2019-01-24T14:23:09.743Z,72.07
2019-01-24T14:25:38.833Z,72.20
2019-01-24T14:28:07.943Z,72.31
2019-01-24T14:30:37.017Z,72.53
2019-01-24T14:33:06.091Z,72.61
2019-01-24T14:35:35.211Z,72.74
2019-01-24T14:38:04.292Z,73.20
2019-01-24T14:40:33.379Z,73.42
2019-01-24T14:43:02.504Z,73.91
2019-01-24T14:45:32.344Z,74.05
2019-01-24T14:48:01.412Z,74.35
2019-01-24T14:50:30.510Z,74.18
2019-01-24T14:52:59.596Z,74.16
2019-01-24T14:58:37.983Z,73.89
2019-01-24T15:01:07.107Z,73.63
2019-01-24T15:03:36.177Z,73.75
2019-01-24T15:06:26.341Z,73.69
2019-01-24T15:08:55.424Z,73.49
2019-01-24T15:11:24.494Z,73.29
2019-01-24T15:13:53.608Z,73.65
2019-01-24T15:16:22.680Z,73.67
2019-01-24T15:18:51.755Z,73.77
2019-01-24T15:21:20.974Z,73.77
2019-01-24T15:23:50.035Z,73.96
2019-01-24T15:26:19.119Z,74.11
2019-01-24T15:28:48.226Z,74.02
2019-01-24T15:31:17.306Z,74.11
2019-01-24T15:33:46.372Z,74.02
2019-01-24T15:36:15.500Z,73.84
2019-01-24T15:38:44.571Z,73.96
2019-01-24T15:41:13.638Z,74.14
2019-01-24T15:43:42.848Z,74.09
2019-01-24T15:46:11.926Z,74.07
2019-01-24T15:48:42.793Z,73.90
2019-01-24T15:51:10.096Z,73.96
2019-01-24T15:53:39.168Z,73.84
2019-01-24T15:56:08.233Z,73.80
2019-01-24T15:58:37.319Z,73.90
2019-01-24T16:01:06.401Z,73.92
2019-01-24T16:03:35.479Z,73.89
2019-01-24T16:06:25.312Z,73.95
2019-01-24T16:08:54.397Z,74.11
2019-01-24T16:11:23.469Z,74.08
2019-01-24T16:13:52.582Z,74.08
2019-01-24T16:16:21.648Z,74.06
2019-01-24T16:18:50.719Z,74.06
2019-01-24T16:21:19.849Z,74.22
2019-01-24T16:23:48.918Z,74.22
2019-01-24T16:26:17.987Z,74.04
2019-01-24T16:28:47.091Z,73.96
2019-01-24T16:31:16.178Z,73.80
2019-01-24T16:33:45.254Z,73.93
2019-01-24T16:36:16.360Z,73.91
2019-01-24T16:38:45.446Z,74.27
2019-01-24T16:41:14.525Z,74.46
2019-01-24T16:43:43.633Z,74.78
2019-01-24T16:46:13.539Z,74.39
2019-01-24T16:48:42.611Z,74.82
2019-01-24T16:51:11.729Z,75.33
2019-01-24T16:53:40.869Z,75.28
2019-01-24T16:56:09.937Z,75.04
2019-01-24T16:58:39.041Z,75.05
2019-01-24T17:01:08.124Z,74.90
2019-01-24T17:03:37.195Z,75.07
2019-01-24T17:06:06.377Z,75.01
2019-01-24T17:08:35.452Z,75.08
2019-01-24T17:11:04.550Z,75.37
2019-01-24T17:13:33.706Z,75.03
2019-01-24T17:16:02.781Z,74.94
2019-01-24T17:18:31.862Z,74.87
2019-01-24T17:21:00.960Z,74.96
2019-01-24T17:23:30.049Z,75.73
2019-01-24T17:25:59.138Z,75.34
2019-01-24T17:28:28.241Z,75.13
2019-01-24T17:30:57.332Z,75.02
2019-01-24T17:33:26.412Z,75.09
2019-01-24T17:35:55.866Z,75.22
2019-01-24T17:38:24.952Z,75.22
2019-01-24T17:40:54.033Z,75.45
2019-01-24T17:43:23.153Z,75.93
2019-01-24T17:45:52.237Z,75.90
2019-01-24T17:48:21.331Z,76.17
2019-01-24T17:50:50.435Z,76.51
2019-01-24T17:53:19.527Z,76.49
2019-01-24T17:55:48.617Z,76.46
2019-01-24T17:58:18.659Z,76.90
2019-01-24T18:00:47.735Z,76.91
2019-01-24T18:03:16.816Z,77.25
2019-01-24T18:05:45.936Z,77.61
2019-01-24T18:08:15.016Z,76.95
2019-01-24T18:10:44.108Z,76.65
2019-01-24T18:13:13.217Z,76.30
2019-01-24T18:15:42.304Z,77.16
2019-01-24T18:18:11.398Z,77.71
2019-01-24T18:20:40.534Z,77.80
2019-01-24T18:23:09.628Z,77.90
2019-01-24T18:25:38.723Z,77.94
2019-01-24T18:28:07.838Z,77.32
2019-01-24T18:30:36.926Z,77.42
2019-01-24T18:33:06.004Z,76.81
2019-01-24T18:35:35.122Z,76.38
2019-01-24T18:38:04.266Z,76.27
2019-01-24T18:40:33.417Z,76.13
2019-01-24T18:43:02.542Z,75.90
2019-01-24T18:45:31.631Z,75.78
2019-01-24T18:48:00.718Z,75.68
2019-01-24T18:50:30.706Z,75.76
2019-01-24T18:52:59.784Z,75.77
2019-01-24T18:55:28.868Z,76.80
2019-01-24T18:57:57.978Z,76.59
2019-01-24T19:00:27.079Z,76.54
2019-01-24T19:02:56.160Z,76.53
2019-01-24T19:05:25.314Z,76.57
2019-01-24T19:07:54.391Z,76.39
2019-01-24T19:10:23.471Z,76.56
2019-01-24T19:12:52.580Z,76.34
2019-01-24T19:15:21.658Z,76.18
2019-01-24T19:17:50.738Z,76.06
2019-01-24T19:20:20.322Z,75.88
2019-01-24T19:22:48.950Z,75.75
2019-01-24T19:25:30.437Z,75.94
2019-01-24T19:27:59.527Z,76.33
2019-01-24T19:30:29.431Z,76.15
2019-01-24T19:32:58.609Z,75.98
2019-01-24T19:35:28.827Z,75.93
2019-01-24T19:37:57.677Z,75.86
2019-01-24T19:40:26.799Z,75.77
2019-01-24T19:42:55.894Z,75.65
2019-01-24T19:45:24.990Z,75.56
2019-01-24T19:47:54.118Z,75.49
2019-01-24T19:50:25.138Z,75.50
2019-01-24T19:52:54.228Z,75.49
2019-01-24T19:55:23.400Z,75.54
2019-01-24T19:57:52.494Z,75.62
2019-01-24T20:00:21.664Z,75.74
2019-01-24T20:02:50.781Z,75.81
2019-01-24T20:05:19.907Z,75.77
2019-01-24T20:07:48.994Z,75.83
2019-01-24T20:10:19.219Z,75.90
2019-01-24T20:12:48.310Z,75.96
2019-01-24T20:15:18.204Z,76.10
2019-01-24T20:17:47.306Z,76.10
2019-01-24T20:20:16.403Z,76.05
2019-01-24T20:22:45.558Z,75.98
2019-01-24T20:25:19.794Z,75.99
2019-01-24T20:27:48.893Z,75.93
2019-01-24T20:30:17.988Z,75.90
2019-01-24T20:32:47.099Z,75.84
2019-01-24T20:35:16.175Z,75.95
2019-01-24T20:37:45.267Z,75.90
2019-01-24T20:40:14.385Z,75.93
2019-01-24T20:42:43.480Z,75.95
2019-01-24T20:45:12.578Z,76.00
2019-01-24T20:47:41.692Z,75.98
2019-01-24T20:50:12.323Z,75.80
2019-01-24T20:52:41.408Z,75.76
2019-01-24T20:55:10.519Z,75.73
2019-01-24T20:57:39.600Z,75.74
2019-01-24T21:00:11.642Z,75.83
2019-01-24T21:02:40.740Z,75.91
2019-01-24T21:05:09.855Z,75.85
2019-01-24T21:07:39.093Z,75.75
2019-01-24T21:10:08.929Z,75.68
2019-01-24T21:12:50.578Z,75.56
2019-01-24T21:15:29.263Z,75.55
2019-01-24T21:17:59.238Z,75.54
2019-01-24T21:20:28.352Z,75.51
2019-01-24T21:22:57.479Z,75.52
2019-01-24T21:25:26.629Z,75.59
2019-01-24T21:27:55.707Z,75.75
2019-01-24T21:30:28.544Z,76.62
2019-01-24T21:32:57.630Z,76.55
2019-01-24T21:35:43.719Z,76.53
2019-01-24T21:38:12.816Z,76.56
2019-01-24T21:40:41.903Z,76.53
2019-01-24T21:43:11.019Z,76.42
2019-01-24T21:45:40.111Z,76.46
2019-01-24T21:48:09.186Z,76.51
2019-01-24T21:50:38.309Z,76.69
2019-01-24T21:53:08.224Z,76.71
2019-01-24T21:55:44.952Z,76.74
2019-01-24T21:58:14.027Z,77.61
2019-01-24T22:00:43.442Z,77.20
2019-01-24T22:03:12.506Z,77.02
2019-01-24T22:05:41.636Z,76.99
2019-01-24T22:08:10.691Z,77.28
2019-01-24T22:10:39.797Z,77.16
2019-01-24T22:13:08.883Z,77.67
2019-01-24T22:15:37.974Z,77.78
2019-01-24T22:18:07.080Z,77.74
2019-01-24T22:20:36.168Z,77.88
2019-01-24T22:23:05.236Z,78.10
2019-01-24T22:25:34.450Z,77.81
2019-01-24T22:28:03.531Z,77.78
2019-01-24T22:30:32.611Z,77.44
2019-01-24T22:33:01.726Z,77.44
2019-01-24T22:35:30.817Z,77.50
2019-01-24T22:37:59.893Z,77.26
2019-01-24T22:40:29.003Z,77.07
2019-01-24T22:42:58.089Z,77.09
2019-01-24T22:45:27.169Z,77.04
2019-01-24T22:47:56.279Z,77.01
2019-01-24T22:50:25.352Z,76.72
2019-01-24T22:52:54.432Z,76.58
2019-01-24T22:55:42.318Z,76.57
2019-01-24T22:58:11.387Z,76.60
2019-01-24T23:00:53.071Z,76.70
2019-01-24T23:03:22.148Z,76.61
2019-01-24T23:05:52.383Z,76.66
2019-01-24T23:08:20.518Z,76.56
2019-01-24T23:10:49.618Z,76.54
2019-01-24T23:13:18.695Z,76.66
2019-01-24T23:15:47.820Z,76.82
2019-01-24T23:18:16.905Z,76.87
2019-01-24T23:20:45.976Z,76.75
2019-01-24T23:23:15.066Z,76.69
2019-01-24T23:25:44.127Z,76.59
2019-01-24T23:28:13.202Z,76.56
2019-01-24T23:30:42.316Z,76.63
2019-01-24T23:33:11.396Z,76.84
2019-01-24T23:35:40.474Z,76.78
2019-01-24T23:38:09.564Z,76.66
2019-01-24T23:40:38.640Z,76.64
2019-01-24T23:43:07.715Z,76.40
2019-01-24T23:45:36.812Z,76.27
2019-01-24T23:48:05.898Z,76.17
2019-01-24T23:50:34.975Z,76.19
2019-01-24T23:53:04.142Z,76.14
2019-01-24T23:55:33.313Z,76.08
2019-01-24T23:58:02.383Z,76.06
